sensor_id;sensor_type;location;lat;lon;timestamp;P1;durP1;ratioP1;P2;durP2;ratioP2
77280;SDS011;66339;47.262;17.144;2023-10-13T00:02:20;36.20;;;23.40;;
77280;SDS011;66339;47.262;17.144;2023-10-13T00:04:47;34.72;;;22.50;;
77280;SDS011;66339;47.262;17.144;2023-10-13T00:07:13;33.58;;;22.15;;
77280;SDS011;66339;47.262;17.144;2023-10-13T00:09:40;35.50;;;23.05;;
77280;SDS011;66339;47.262;17.144;2023-10-13T00:12:08;32.83;;;22.30;;
77280;SDS011;66339;47.262;17.144;2023-10-13T00:14:38;34.63;;;22.20;;
77280;SDS011;66339;47.262;17.144;2023-10-13T00:17:05;32.95;;;21.27;;
77280;SDS011;66339;47.262;17.144;2023-10-13T00:19:38;38.92;;;23.05;;
77280;SDS011;66339;47.262;17.144;2023-10-13T00:22:06;36.63;;;23.38;;
77280;SDS011;66339;47.262;17.144;2023-10-13T00:24:34;32.63;;;21.58;;
77280;SDS011;66339;47.262;17.144;2023-10-13T00:27:04;32.85;;;21.52;;
77280;SDS011;66339;47.262;17.144;2023-10-13T00:29:36;33.17;;;21.33;;
77280;SDS011;66339;47.262;17.144;2023-10-13T00:32:05;31.75;;;21.52;;
77280;SDS011;66339;47.262;17.144;2023-10-13T00:34:36;32.97;;;21.92;;
77280;SDS011;66339;47.262;17.144;2023-10-13T00:37:06;32.85;;;21.08;;
77280;SDS011;66339;47.262;17.144;2023-10-13T00:39:33;32.45;;;21.52;;
77280;SDS011;66339;47.262;17.144;2023-10-13T00:42:00;32.78;;;21.73;;
77280;SDS011;66339;47.262;17.144;2023-10-13T00:44:30;31.90;;;20.92;;
77280;SDS011;66339;47.262;17.144;2023-10-13T00:47:00;32.17;;;20.30;;
77280;SDS011;66339;47.262;17.144;2023-10-13T00:49:27;29.83;;;20.35;;
77280;SDS011;66339;47.262;17.144;2023-10-13T00:51:54;29.23;;;20.05;;
77280;SDS011;66339;47.262;17.144;2023-10-13T00:54:20;29.02;;;18.85;;
77280;SDS011;66339;47.262;17.144;2023-10-13T00:56:54;29.23;;;19.85;;
77280;SDS011;66339;47.262;17.144;2023-10-13T00:59:22;32.58;;;20.75;;
77280;SDS011;66339;47.262;17.144;2023-10-13T01:01:56;29.73;;;19.95;;
77280;SDS011;66339;47.262;17.144;2023-10-13T01:04:26;29.73;;;19.62;;
77280;SDS011;66339;47.262;17.144;2023-10-13T01:06:54;28.38;;;18.58;;
77280;SDS011;66339;47.262;17.144;2023-10-13T01:09:26;30.88;;;19.17;;
77280;SDS011;66339;47.262;17.144;2023-10-13T01:11:56;29.58;;;18.67;;
77280;SDS011;66339;47.262;17.144;2023-10-13T01:14:23;28.25;;;18.85;;
77280;SDS011;66339;47.262;17.144;2023-10-13T01:16:53;26.52;;;18.48;;
77280;SDS011;66339;47.262;17.144;2023-10-13T01:19:26;26.08;;;18.62;;
77280;SDS011;66339;47.262;17.144;2023-10-13T01:21:53;30.15;;;19.02;;
77280;SDS011;66339;47.262;17.144;2023-10-13T01:24:20;26.80;;;18.37;;
77280;SDS011;66339;47.262;17.144;2023-10-13T01:26:49;29.48;;;18.90;;
77280;SDS011;66339;47.262;17.144;2023-10-13T01:29:20;27.42;;;18.60;;
77280;SDS011;66339;47.262;17.144;2023-10-13T01:31:47;26.35;;;17.10;;
77280;SDS011;66339;47.262;17.144;2023-10-13T01:34:17;29.02;;;19.02;;
77280;SDS011;66339;47.262;17.144;2023-10-13T01:36:48;25.12;;;16.48;;
77280;SDS011;66339;47.262;17.144;2023-10-13T01:39:19;26.62;;;17.75;;
77280;SDS011;66339;47.262;17.144;2023-10-13T01:41:50;26.85;;;17.37;;
77280;SDS011;66339;47.262;17.144;2023-10-13T01:44:17;27.73;;;17.30;;
77280;SDS011;66339;47.262;17.144;2023-10-13T01:46:44;27.77;;;17.83;;
77280;SDS011;66339;47.262;17.144;2023-10-13T01:49:10;25.50;;;15.98;;
77280;SDS011;66339;47.262;17.144;2023-10-13T01:51:37;26.83;;;17.40;;
77280;SDS011;66339;47.262;17.144;2023-10-13T01:54:04;26.30;;;17.08;;
77280;SDS011;66339;47.262;17.144;2023-10-13T01:56:35;25.37;;;16.55;;
77280;SDS011;66339;47.262;17.144;2023-10-13T01:59:01;23.62;;;15.68;;
77280;SDS011;66339;47.262;17.144;2023-10-13T02:01:33;25.90;;;16.55;;
77280;SDS011;66339;47.262;17.144;2023-10-13T02:04:06;25.40;;;16.33;;
77280;SDS011;66339;47.262;17.144;2023-10-13T02:06:34;24.48;;;16.20;;
77280;SDS011;66339;47.262;17.144;2023-10-13T02:09:06;27.35;;;16.45;;
77280;SDS011;66339;47.262;17.144;2023-10-13T02:11:34;25.50;;;15.98;;
77280;SDS011;66339;47.262;17.144;2023-10-13T02:14:07;23.87;;;15.48;;
77280;SDS011;66339;47.262;17.144;2023-10-13T02:16:37;24.90;;;15.73;;
77280;SDS011;66339;47.262;17.144;2023-10-13T02:19:08;24.23;;;15.93;;
77280;SDS011;66339;47.262;17.144;2023-10-13T02:21:38;22.15;;;14.75;;
77280;SDS011;66339;47.262;17.144;2023-10-13T02:24:08;24.02;;;15.68;;
77280;SDS011;66339;47.262;17.144;2023-10-13T02:26:38;22.60;;;15.10;;
77280;SDS011;66339;47.262;17.144;2023-10-13T02:29:10;22.25;;;14.90;;
77280;SDS011;66339;47.262;17.144;2023-10-13T02:31:39;21.48;;;14.40;;
77280;SDS011;66339;47.262;17.144;2023-10-13T02:34:07;21.92;;;14.48;;
77280;SDS011;66339;47.262;17.144;2023-10-13T02:36:35;23.02;;;15.13;;
77280;SDS011;66339;47.262;17.144;2023-10-13T02:39:03;22.83;;;15.50;;
77280;SDS011;66339;47.262;17.144;2023-10-13T02:41:31;22.02;;;15.25;;
77280;SDS011;66339;47.262;17.144;2023-10-13T02:44:07;23.15;;;15.10;;
77280;SDS011;66339;47.262;17.144;2023-10-13T02:46:37;22.85;;;14.87;;
77280;SDS011;66339;47.262;17.144;2023-10-13T02:49:04;23.90;;;15.43;;
77280;SDS011;66339;47.262;17.144;2023-10-13T02:51:35;21.58;;;14.68;;
77280;SDS011;66339;47.262;17.144;2023-10-13T02:54:05;21.42;;;14.65;;
77280;SDS011;66339;47.262;17.144;2023-10-13T02:56:32;22.50;;;14.32;;
77280;SDS011;66339;47.262;17.144;2023-10-13T02:58:58;22.67;;;14.00;;
77280;SDS011;66339;47.262;17.144;2023-10-13T03:01:25;20.98;;;14.63;;
77280;SDS011;66339;47.262;17.144;2023-10-13T03:03:54;23.73;;;14.27;;
77280;SDS011;66339;47.262;17.144;2023-10-13T03:06:27;21.48;;;13.98;;
77280;SDS011;66339;47.262;17.144;2023-10-13T03:08:54;22.30;;;14.18;;
77280;SDS011;66339;47.262;17.144;2023-10-13T03:11:27;21.40;;;13.60;;
77280;SDS011;66339;47.262;17.144;2023-10-13T03:13:54;18.85;;;13.02;;
77280;SDS011;66339;47.262;17.144;2023-10-13T03:16:21;20.98;;;14.15;;
77280;SDS011;66339;47.262;17.144;2023-10-13T03:18:48;20.23;;;13.40;;
77280;SDS011;66339;47.262;17.144;2023-10-13T03:21:18;17.92;;;12.73;;
77280;SDS011;66339;47.262;17.144;2023-10-13T03:23:49;19.75;;;13.10;;
77280;SDS011;66339;47.262;17.144;2023-10-13T03:26:16;19.33;;;13.20;;
77280;SDS011;66339;47.262;17.144;2023-10-13T03:28:46;18.15;;;12.88;;
77280;SDS011;66339;47.262;17.144;2023-10-13T03:31:13;20.80;;;12.93;;
77280;SDS011;66339;47.262;17.144;2023-10-13T03:33:43;20.62;;;13.40;;
77280;SDS011;66339;47.262;17.144;2023-10-13T03:36:13;20.75;;;12.88;;
77280;SDS011;66339;47.262;17.144;2023-10-13T03:38:40;20.05;;;12.68;;
77280;SDS011;66339;47.262;17.144;2023-10-13T03:41:07;18.75;;;12.90;;
77280;SDS011;66339;47.262;17.144;2023-10-13T03:43:34;20.25;;;12.88;;
77280;SDS011;66339;47.262;17.144;2023-10-13T03:46:02;18.00;;;12.50;;
77280;SDS011;66339;47.262;17.144;2023-10-13T03:48:29;18.87;;;12.65;;
77280;SDS011;66339;47.262;17.144;2023-10-13T03:51:00;18.90;;;12.73;;
77280;SDS011;66339;47.262;17.144;2023-10-13T03:53:33;19.98;;;13.15;;
77280;SDS011;66339;47.262;17.144;2023-10-13T03:56:04;19.58;;;13.02;;
77280;SDS011;66339;47.262;17.144;2023-10-13T03:58:32;17.92;;;11.93;;
77280;SDS011;66339;47.262;17.144;2023-10-13T04:01:05;17.23;;;11.75;;
77280;SDS011;66339;47.262;17.144;2023-10-13T04:03:32;16.98;;;11.77;;
77280;SDS011;66339;47.262;17.144;2023-10-13T04:06:05;18.75;;;11.70;;
77280;SDS011;66339;47.262;17.144;2023-10-13T04:08:33;17.40;;;12.15;;
77280;SDS011;66339;47.262;17.144;2023-10-13T04:11:04;19.52;;;12.70;;
77280;SDS011;66339;47.262;17.144;2023-10-13T04:13:31;15.85;;;11.27;;
77280;SDS011;66339;47.262;17.144;2023-10-13T04:15:58;17.27;;;11.68;;
77280;SDS011;66339;47.262;17.144;2023-10-13T04:18:27;15.85;;;11.12;;
77280;SDS011;66339;47.262;17.144;2023-10-13T04:20:57;18.08;;;11.63;;
77280;SDS011;66339;47.262;17.144;2023-10-13T04:23:24;17.37;;;11.75;;
77280;SDS011;66339;47.262;17.144;2023-10-13T04:25:53;17.98;;;11.30;;
77280;SDS011;66339;47.262;17.144;2023-10-13T04:28:24;19.35;;;11.20;;
77280;SDS011;66339;47.262;17.144;2023-10-13T04:30:54;17.15;;;11.43;;
77280;SDS011;66339;47.262;17.144;2023-10-13T04:33:21;18.55;;;11.85;;
77280;SDS011;66339;47.262;17.144;2023-10-13T04:35:48;16.05;;;11.10;;
77280;SDS011;66339;47.262;17.144;2023-10-13T04:38:15;16.55;;;11.10;;
77280;SDS011;66339;47.262;17.144;2023-10-13T04:40:42;16.27;;;11.45;;
77280;SDS011;66339;47.262;17.144;2023-10-13T04:43:09;15.02;;;10.32;;
77280;SDS011;66339;47.262;17.144;2023-10-13T04:45:39;16.20;;;10.88;;
77280;SDS011;66339;47.262;17.144;2023-10-13T04:48:06;19.15;;;11.48;;
77280;SDS011;66339;47.262;17.144;2023-10-13T04:50:36;16.92;;;10.75;;
77280;SDS011;66339;47.262;17.144;2023-10-13T04:53:06;14.82;;;10.50;;
77280;SDS011;66339;47.262;17.144;2023-10-13T04:58:02;15.75;;;10.55;;
77280;SDS011;66339;47.262;17.144;2023-10-13T05:00:32;15.50;;;10.68;;
77280;SDS011;66339;47.262;17.144;2023-10-13T05:03:03;17.33;;;10.93;;
77280;SDS011;66339;47.262;17.144;2023-10-13T05:05:33;15.60;;;10.55;;
77280;SDS011;66339;47.262;17.144;2023-10-13T05:08:00;14.73;;;10.50;;
77280;SDS011;66339;47.262;17.144;2023-10-13T05:10:27;15.38;;;10.10;;
77280;SDS011;66339;47.262;17.144;2023-10-13T05:12:55;17.65;;;10.43;;
77280;SDS011;66339;47.262;17.144;2023-10-13T05:15:22;16.02;;;10.07;;
77280;SDS011;66339;47.262;17.144;2023-10-13T05:17:52;15.32;;;10.82;;
77280;SDS011;66339;47.262;17.144;2023-10-13T05:20:19;16.95;;;10.30;;
77280;SDS011;66339;47.262;17.144;2023-10-13T05:22:49;14.77;;;10.10;;
77280;SDS011;66339;47.262;17.144;2023-10-13T05:25:19;15.10;;;10.40;;
77280;SDS011;66339;47.262;17.144;2023-10-13T05:27:49;18.30;;;11.15;;
77280;SDS011;66339;47.262;17.144;2023-10-13T05:30:16;15.82;;;10.15;;
77280;SDS011;66339;47.262;17.144;2023-10-13T05:32:52;15.38;;;10.40;;
77280;SDS011;66339;47.262;17.144;2023-10-13T05:35:22;16.50;;;11.25;;
77280;SDS011;66339;47.262;17.144;2023-10-13T05:37:55;21.05;;;12.73;;
77280;SDS011;66339;47.262;17.144;2023-10-13T05:40:25;24.05;;;13.23;;
77280;SDS011;66339;47.262;17.144;2023-10-13T05:42:56;22.33;;;12.90;;
77280;SDS011;66339;47.262;17.144;2023-10-13T05:45:23;22.73;;;13.55;;
77280;SDS011;66339;47.262;17.144;2023-10-13T05:47:53;28.77;;;15.23;;
77280;SDS011;66339;47.262;17.144;2023-10-13T05:50:27;28.50;;;17.20;;
77280;SDS011;66339;47.262;17.144;2023-10-13T05:52:54;24.35;;;14.82;;
77280;SDS011;66339;47.262;17.144;2023-10-13T05:58:00;23.15;;;14.00;;
77280;SDS011;66339;47.262;17.144;2023-10-13T06:00:27;26.25;;;15.38;;
77280;SDS011;66339;47.262;17.144;2023-10-13T06:02:54;26.92;;;15.82;;
77280;SDS011;66339;47.262;17.144;2023-10-13T06:05:28;26.65;;;14.85;;
77280;SDS011;66339;47.262;17.144;2023-10-13T06:07:56;30.02;;;15.48;;
77280;SDS011;66339;47.262;17.144;2023-10-13T06:10:26;34.17;;;16.20;;
77280;SDS011;66339;47.262;17.144;2023-10-13T06:12:53;31.05;;;17.92;;
77280;SDS011;66339;47.262;17.144;2023-10-13T06:15:23;35.78;;;19.05;;
77280;SDS011;66339;47.262;17.144;2023-10-13T06:17:50;30.23;;;17.60;;
77280;SDS011;66339;47.262;17.144;2023-10-13T06:20:20;32.25;;;18.95;;
77280;SDS011;66339;47.262;17.144;2023-10-13T06:22:50;30.73;;;18.77;;
77280;SDS011;66339;47.262;17.144;2023-10-13T06:25:20;25.67;;;17.58;;
77280;SDS011;66339;47.262;17.144;2023-10-13T06:27:47;32.85;;;18.67;;
77280;SDS011;66339;47.262;17.144;2023-10-13T06:30:20;40.35;;;18.77;;
77280;SDS011;66339;47.262;17.144;2023-10-13T06:32:55;33.80;;;18.77;;
77280;SDS011;66339;47.262;17.144;2023-10-13T06:35:23;28.33;;;18.10;;
77280;SDS011;66339;47.262;17.144;2023-10-13T06:37:52;31.90;;;18.83;;
77280;SDS011;66339;47.262;17.144;2023-10-13T06:40:19;30.35;;;19.15;;
77280;SDS011;66339;47.262;17.144;2023-10-13T06:42:48;33.17;;;19.75;;
77280;SDS011;66339;47.262;17.144;2023-10-13T06:45:15;33.15;;;20.23;;
77280;SDS011;66339;47.262;17.144;2023-10-13T06:47:45;37.10;;;20.10;;
77280;SDS011;66339;47.262;17.144;2023-10-13T06:50:12;38.25;;;19.60;;
77280;SDS011;66339;47.262;17.144;2023-10-13T06:52:41;32.65;;;19.25;;
77280;SDS011;66339;47.262;17.144;2023-10-13T06:55:13;39.28;;;20.75;;
77280;SDS011;66339;47.262;17.144;2023-10-13T06:57:40;40.92;;;20.55;;
77280;SDS011;66339;47.262;17.144;2023-10-13T07:00:11;33.53;;;19.40;;
77280;SDS011;66339;47.262;17.144;2023-10-13T07:02:39;31.27;;;19.52;;
77280;SDS011;66339;47.262;17.144;2023-10-13T07:05:06;42.33;;;19.37;;
77280;SDS011;66339;47.262;17.144;2023-10-13T07:07:44;47.78;;;19.40;;
77280;SDS011;66339;47.262;17.144;2023-10-13T07:10:15;30.27;;;18.92;;
77280;SDS011;66339;47.262;17.144;2023-10-13T07:12:42;33.95;;;19.55;;
77280;SDS011;66339;47.262;17.144;2023-10-13T07:15:14;35.17;;;19.67;;
77280;SDS011;66339;47.262;17.144;2023-10-13T07:17:41;35.90;;;19.90;;
77280;SDS011;66339;47.262;17.144;2023-10-13T07:20:11;30.75;;;19.83;;
77280;SDS011;66339;47.262;17.144;2023-10-13T07:22:38;30.67;;;18.95;;
77280;SDS011;66339;47.262;17.144;2023-10-13T07:25:05;35.60;;;20.95;;
77280;SDS011;66339;47.262;17.144;2023-10-13T07:27:32;32.08;;;19.65;;
77280;SDS011;66339;47.262;17.144;2023-10-13T07:30:02;32.28;;;19.67;;
77280;SDS011;66339;47.262;17.144;2023-10-13T07:32:33;34.95;;;18.87;;
77280;SDS011;66339;47.262;17.144;2023-10-13T07:35:01;31.80;;;20.50;;
77280;SDS011;66339;47.262;17.144;2023-10-13T07:37:31;34.30;;;20.58;;
77280;SDS011;66339;47.262;17.144;2023-10-13T07:40:03;37.75;;;20.65;;
77280;SDS011;66339;47.262;17.144;2023-10-13T07:42:33;35.45;;;20.42;;
77280;SDS011;66339;47.262;17.144;2023-10-13T07:45:04;33.38;;;20.35;;
77280;SDS011;66339;47.262;17.144;2023-10-13T07:47:34;33.22;;;20.85;;
77280;SDS011;66339;47.262;17.144;2023-10-13T07:50:01;31.65;;;20.12;;
77280;SDS011;66339;47.262;17.144;2023-10-13T07:52:28;32.88;;;20.08;;
77280;SDS011;66339;47.262;17.144;2023-10-13T07:55:05;41.35;;;21.05;;
77280;SDS011;66339;47.262;17.144;2023-10-13T07:57:32;33.35;;;21.40;;
77280;SDS011;66339;47.262;17.144;2023-10-13T07:59:59;37.10;;;21.67;;
77280;SDS011;66339;47.262;17.144;2023-10-13T08:02:26;33.97;;;20.73;;
77280;SDS011;66339;47.262;17.144;2023-10-13T08:05:02;31.12;;;20.00;;
77280;SDS011;66339;47.262;17.144;2023-10-13T08:07:44;32.35;;;21.05;;
77280;SDS011;66339;47.262;17.144;2023-10-13T08:10:11;33.00;;;20.55;;
77280;SDS011;66339;47.262;17.144;2023-10-13T08:12:39;33.38;;;21.75;;
77280;SDS011;66339;47.262;17.144;2023-10-13T08:15:08;32.83;;;20.92;;
77280;SDS011;66339;47.262;17.144;2023-10-13T08:17:39;33.85;;;20.58;;
77280;SDS011;66339;47.262;17.144;2023-10-13T08:20:10;31.62;;;20.02;;
77280;SDS011;66339;47.262;17.144;2023-10-13T08:22:41;30.60;;;20.02;;
77280;SDS011;66339;47.262;17.144;2023-10-13T08:25:15;33.58;;;20.35;;
77280;SDS011;66339;47.262;17.144;2023-10-13T08:27:50;31.40;;;20.08;;
77280;SDS011;66339;47.262;17.144;2023-10-13T08:30:21;31.05;;;21.00;;
77280;SDS011;66339;47.262;17.144;2023-10-13T08:32:53;31.62;;;20.88;;
77280;SDS011;66339;47.262;17.144;2023-10-13T08:35:24;32.78;;;21.12;;
77280;SDS011;66339;47.262;17.144;2023-10-13T08:37:52;30.73;;;20.60;;
77280;SDS011;66339;47.262;17.144;2023-10-13T08:40:37;31.70;;;21.48;;
77280;SDS011;66339;47.262;17.144;2023-10-13T08:43:08;34.47;;;20.85;;
77280;SDS011;66339;47.262;17.144;2023-10-13T08:45:40;33.38;;;21.35;;
77280;SDS011;66339;47.262;17.144;2023-10-13T08:48:09;36.95;;;21.65;;
77280;SDS011;66339;47.262;17.144;2023-10-13T08:50:38;36.13;;;22.75;;
77280;SDS011;66339;47.262;17.144;2023-10-13T08:53:08;34.22;;;22.67;;
77280;SDS011;66339;47.262;17.144;2023-10-13T08:55:35;32.50;;;21.98;;
77280;SDS011;66339;47.262;17.144;2023-10-13T08:58:09;36.47;;;22.17;;
77280;SDS011;66339;47.262;17.144;2023-10-13T09:00:36;37.38;;;22.92;;
77280;SDS011;66339;47.262;17.144;2023-10-13T09:03:15;36.92;;;23.02;;
77280;SDS011;66339;47.262;17.144;2023-10-13T09:05:47;35.00;;;23.42;;
77280;SDS011;66339;47.262;17.144;2023-10-13T09:08:15;39.63;;;24.92;;
77280;SDS011;66339;47.262;17.144;2023-10-13T09:10:57;36.25;;;23.35;;
77280;SDS011;66339;47.262;17.144;2023-10-13T09:13:33;35.55;;;23.27;;
77280;SDS011;66339;47.262;17.144;2023-10-13T09:16:10;34.92;;;23.35;;
77280;SDS011;66339;47.262;17.144;2023-10-13T09:18:45;35.58;;;23.77;;
77280;SDS011;66339;47.262;17.144;2023-10-13T09:21:16;37.40;;;24.15;;
77280;SDS011;66339;47.262;17.144;2023-10-13T09:23:52;35.42;;;23.55;;
77280;SDS011;66339;47.262;17.144;2023-10-13T09:26:24;39.25;;;24.87;;
77280;SDS011;66339;47.262;17.144;2023-10-13T09:29:02;37.50;;;24.50;;
77280;SDS011;66339;47.262;17.144;2023-10-13T09:31:46;35.38;;;24.23;;
77280;SDS011;66339;47.262;17.144;2023-10-13T09:34:21;34.83;;;23.45;;
77280;SDS011;66339;47.262;17.144;2023-10-13T09:36:52;38.28;;;24.92;;
77280;SDS011;66339;47.262;17.144;2023-10-13T09:39:25;39.13;;;25.37;;
77280;SDS011;66339;47.262;17.144;2023-10-13T09:42:01;38.03;;;24.83;;
77280;SDS011;66339;47.262;17.144;2023-10-13T09:44:31;39.72;;;25.25;;
77280;SDS011;66339;47.262;17.144;2023-10-13T09:47:03;35.78;;;24.65;;
77280;SDS011;66339;47.262;17.144;2023-10-13T09:49:37;36.10;;;24.67;;
77280;SDS011;66339;47.262;17.144;2023-10-13T09:52:19;35.75;;;24.70;;
77280;SDS011;66339;47.262;17.144;2023-10-13T09:55:13;36.00;;;23.92;;
77280;SDS011;66339;47.262;17.144;2023-10-13T09:57:45;34.15;;;22.83;;
77280;SDS011;66339;47.262;17.144;2023-10-13T10:00:18;35.53;;;22.60;;
77280;SDS011;66339;47.262;17.144;2023-10-13T10:02:46;34.40;;;22.00;;
77280;SDS011;66339;47.262;17.144;2023-10-13T10:05:23;31.98;;;20.75;;
77280;SDS011;66339;47.262;17.144;2023-10-13T10:07:56;33.20;;;20.73;;
77280;SDS011;66339;47.262;17.144;2023-10-13T10:10:27;29.73;;;19.42;;
77280;SDS011;66339;47.262;17.144;2023-10-13T10:13:56;31.23;;;19.30;;
77280;SDS011;66339;47.262;17.144;2023-10-13T10:16:15;29.67;;;19.17;;
77280;SDS011;66339;47.262;17.144;2023-10-13T10:19:00;32.50;;;20.67;;
77280;SDS011;66339;47.262;17.144;2023-10-13T10:21:37;31.45;;;20.40;;
77280;SDS011;66339;47.262;17.144;2023-10-13T10:24:23;35.35;;;20.02;;
77280;SDS011;66339;47.262;17.144;2023-10-13T10:26:53;29.92;;;18.90;;
77280;SDS011;66339;47.262;17.144;2023-10-13T10:29:23;27.65;;;18.60;;
77280;SDS011;66339;47.262;17.144;2023-10-13T10:31:51;29.17;;;19.25;;
77280;SDS011;66339;47.262;17.144;2023-10-13T10:34:33;30.75;;;19.33;;
77280;SDS011;66339;47.262;17.144;2023-10-13T10:37:01;27.30;;;18.77;;
77280;SDS011;66339;47.262;17.144;2023-10-13T10:39:35;25.95;;;18.15;;
77280;SDS011;66339;47.262;17.144;2023-10-13T10:42:12;29.58;;;19.35;;
77280;SDS011;66339;47.262;17.144;2023-10-13T10:44:42;31.25;;;19.62;;
77280;SDS011;66339;47.262;17.144;2023-10-13T10:52:16;26.50;;;17.58;;
77280;SDS011;66339;47.262;17.144;2023-10-13T10:54:47;26.65;;;17.12;;
77280;SDS011;66339;47.262;17.144;2023-10-13T10:57:24;25.42;;;15.70;;
77280;SDS011;66339;47.262;17.144;2023-10-13T11:00:00;25.33;;;16.12;;
77280;SDS011;66339;47.262;17.144;2023-10-13T11:02:30;25.45;;;16.02;;
77280;SDS011;66339;47.262;17.144;2023-10-13T11:05:01;22.42;;;15.25;;
77280;SDS011;66339;47.262;17.144;2023-10-13T11:07:32;25.95;;;15.15;;
77280;SDS011;66339;47.262;17.144;2023-10-13T11:10:08;25.20;;;15.85;;
77280;SDS011;66339;47.262;17.144;2023-10-13T11:12:36;22.62;;;15.63;;
77280;SDS011;66339;47.262;17.144;2023-10-13T11:15:07;24.35;;;15.15;;
77280;SDS011;66339;47.262;17.144;2023-10-13T11:17:35;26.95;;;15.32;;
77280;SDS011;66339;47.262;17.144;2023-10-13T11:20:10;23.52;;;15.30;;
77280;SDS011;66339;47.262;17.144;2023-10-13T11:22:41;23.98;;;15.13;;
77280;SDS011;66339;47.262;17.144;2023-10-13T11:25:25;24.55;;;15.40;;
77280;SDS011;66339;47.262;17.144;2023-10-13T11:27:53;24.77;;;15.27;;
77280;SDS011;66339;47.262;17.144;2023-10-13T11:30:24;22.48;;;13.85;;
77280;SDS011;66339;47.262;17.144;2023-10-13T11:35:37;24.58;;;14.87;;
77280;SDS011;66339;47.262;17.144;2023-10-13T11:38:05;25.45;;;15.30;;
77280;SDS011;66339;47.262;17.144;2023-10-13T11:40:32;23.08;;;14.55;;
77280;SDS011;66339;47.262;17.144;2023-10-13T11:42:59;25.75;;;15.15;;
77280;SDS011;66339;47.262;17.144;2023-10-13T11:45:34;25.08;;;14.68;;
77280;SDS011;66339;47.262;17.144;2023-10-13T11:48:04;25.30;;;15.73;;
77280;SDS011;66339;47.262;17.144;2023-10-13T11:50:31;23.55;;;14.85;;
77280;SDS011;66339;47.262;17.144;2023-10-13T11:53:04;26.10;;;16.33;;
77280;SDS011;66339;47.262;17.144;2023-10-13T11:55:31;22.92;;;15.18;;
77280;SDS011;66339;47.262;17.144;2023-10-13T11:58:00;25.02;;;16.50;;
77280;SDS011;66339;47.262;17.144;2023-10-13T12:00:31;29.30;;;16.15;;
77280;SDS011;66339;47.262;17.144;2023-10-13T12:02:58;25.85;;;16.62;;
77280;SDS011;66339;47.262;17.144;2023-10-13T12:05:26;25.10;;;16.37;;
77280;SDS011;66339;47.262;17.144;2023-10-13T12:07:56;24.73;;;16.67;;
77280;SDS011;66339;47.262;17.144;2023-10-13T12:10:23;24.50;;;15.25;;
77280;SDS011;66339;47.262;17.144;2023-10-13T12:12:52;26.23;;;16.33;;
77280;SDS011;66339;47.262;17.144;2023-10-13T12:15:19;24.45;;;16.08;;
77280;SDS011;66339;47.262;17.144;2023-10-13T12:17:49;27.50;;;16.50;;
77280;SDS011;66339;47.262;17.144;2023-10-13T12:20:16;26.60;;;16.45;;
77280;SDS011;66339;47.262;17.144;2023-10-13T12:22:43;24.98;;;16.37;;
77280;SDS011;66339;47.262;17.144;2023-10-13T12:25:13;24.87;;;15.68;;
77280;SDS011;66339;47.262;17.144;2023-10-13T12:27:44;26.17;;;17.40;;
77280;SDS011;66339;47.262;17.144;2023-10-13T12:30:12;25.15;;;16.73;;
77280;SDS011;66339;47.262;17.144;2023-10-13T12:32:42;24.35;;;16.62;;
77280;SDS011;66339;47.262;17.144;2023-10-13T12:35:12;28.17;;;17.08;;
77280;SDS011;66339;47.262;17.144;2023-10-13T12:37:40;27.80;;;16.87;;
77280;SDS011;66339;47.262;17.144;2023-10-13T12:40:12;26.77;;;17.05;;
77280;SDS011;66339;47.262;17.144;2023-10-13T12:42:40;27.48;;;17.52;;
77280;SDS011;66339;47.262;17.144;2023-10-13T12:45:16;25.50;;;16.55;;
77280;SDS011;66339;47.262;17.144;2023-10-13T12:47:43;26.73;;;17.12;;
77280;SDS011;66339;47.262;17.144;2023-10-13T12:50:13;25.27;;;17.60;;
77280;SDS011;66339;47.262;17.144;2023-10-13T12:52:43;27.20;;;17.50;;
77280;SDS011;66339;47.262;17.144;2023-10-13T12:55:14;29.33;;;17.67;;
77280;SDS011;66339;47.262;17.144;2023-10-13T12:57:44;29.60;;;18.83;;
77280;SDS011;66339;47.262;17.144;2023-10-13T13:00:11;25.55;;;17.20;;
77280;SDS011;66339;47.262;17.144;2023-10-13T13:02:42;28.55;;;17.92;;
77280;SDS011;66339;47.262;17.144;2023-10-13T13:05:13;26.45;;;17.08;;
77280;SDS011;66339;47.262;17.144;2023-10-13T13:07:47;25.95;;;17.30;;
77280;SDS011;66339;47.262;17.144;2023-10-13T13:10:20;26.55;;;17.10;;
77280;SDS011;66339;47.262;17.144;2023-10-13T13:12:47;26.60;;;16.65;;
77280;SDS011;66339;47.262;17.144;2023-10-13T13:15:17;29.02;;;17.33;;
77280;SDS011;66339;47.262;17.144;2023-10-13T13:17:49;25.23;;;16.55;;
77280;SDS011;66339;47.262;17.144;2023-10-13T13:20:19;24.67;;;15.82;;
77280;SDS011;66339;47.262;17.144;2023-10-13T13:22:46;27.65;;;16.62;;
77280;SDS011;66339;47.262;17.144;2023-10-13T13:25:15;27.00;;;15.93;;
77280;SDS011;66339;47.262;17.144;2023-10-13T13:27:45;28.00;;;16.35;;
77280;SDS011;66339;47.262;17.144;2023-10-13T13:30:13;29.00;;;16.35;;
77280;SDS011;66339;47.262;17.144;2023-10-13T13:32:43;27.65;;;16.23;;
77280;SDS011;66339;47.262;17.144;2023-10-13T13:35:14;25.35;;;15.75;;
77280;SDS011;66339;47.262;17.144;2023-10-13T13:37:42;25.20;;;15.25;;
77280;SDS011;66339;47.262;17.144;2023-10-13T13:40:16;29.10;;;15.45;;
77280;SDS011;66339;47.262;17.144;2023-10-13T13:42:47;26.90;;;15.05;;
77280;SDS011;66339;47.262;17.144;2023-10-13T13:45:18;23.60;;;14.98;;
77280;SDS011;66339;47.262;17.144;2023-10-13T13:47:49;22.87;;;15.20;;
77280;SDS011;66339;47.262;17.144;2023-10-13T13:50:16;23.08;;;15.05;;
77280;SDS011;66339;47.262;17.144;2023-10-13T13:52:46;25.42;;;14.43;;
77280;SDS011;66339;47.262;17.144;2023-10-13T13:55:16;25.75;;;14.60;;
77280;SDS011;66339;47.262;17.144;2023-10-13T13:57:46;23.77;;;14.02;;
77280;SDS011;66339;47.262;17.144;2023-10-13T14:00:13;21.08;;;13.43;;
77280;SDS011;66339;47.262;17.144;2023-10-13T14:02:43;22.00;;;14.15;;
77280;SDS011;66339;47.262;17.144;2023-10-13T14:05:15;24.15;;;13.82;;
77280;SDS011;66339;47.262;17.144;2023-10-13T14:07:45;22.20;;;13.65;;
77280;SDS011;66339;47.262;17.144;2023-10-13T14:12:51;23.02;;;13.68;;
77280;SDS011;66339;47.262;17.144;2023-10-13T14:15:18;25.20;;;13.30;;
77280;SDS011;66339;47.262;17.144;2023-10-13T14:17:46;24.10;;;13.98;;
77280;SDS011;66339;47.262;17.144;2023-10-13T14:20:21;19.98;;;13.35;;
77280;SDS011;66339;47.262;17.144;2023-10-13T14:22:54;20.70;;;12.48;;
77280;SDS011;66339;47.262;17.144;2023-10-13T14:25:24;20.73;;;12.65;;
77280;SDS011;66339;47.262;17.144;2023-10-13T14:27:55;22.45;;;13.65;;
77280;SDS011;66339;47.262;17.144;2023-10-13T14:30:28;19.33;;;12.82;;
77280;SDS011;66339;47.262;17.144;2023-10-13T14:32:54;19.00;;;11.95;;
77280;SDS011;66339;47.262;17.144;2023-10-13T14:35:25;20.55;;;13.00;;
77280;SDS011;66339;47.262;17.144;2023-10-13T14:37:52;18.85;;;12.05;;
77280;SDS011;66339;47.262;17.144;2023-10-13T14:40:19;21.85;;;13.18;;
77280;SDS011;66339;47.262;17.144;2023-10-13T14:42:47;20.77;;;13.00;;